METAR Formatted Surface Weather Observation
Issued by NWS

Home | Current Version | Previous Version | Text Only | Print | Product List | Glossary On
Versions: 1 2 3 4 5 6 7 8 9 10
000
SAUS42 KTAE 282327
MTR1J0
METAR K1J0 282258Z AUTO 00000KT 10SM FEW035 25/24 A3005 RMK AO2
RAE58 SLP134 P0000 T02500244



USA.gov is the U.S. government's official web portal to all federal, state and local government web resources and services.